Alva, Wyoming
Current Conditions -  °F | °C
As of 11:15 PM on Friday 24 Oct 2014 (Local Time) from KW43 Reporting Station
Broken Clouds Broken Clouds  
Wind Chill: 46°   Ceiling: 12000
Heat Index: 48°   Visibility: 10mi
Dew Point: 30°   Wind: 5mph
Humidity: 50%   Direction: 50°NE
Pressure: 30.16"   Gusts: NA
Location:  44.69°N, 104.44°W
Report Text: KW43 250515Z AUTO 05004KT 10SM BKN120 09/M01 A3016 RMK AO2
Loading
Personal Weather Stations






























Interactive Weather Map
Tropical Storm Tracking
New forecast layout! Learn more

10-Day Weather Forecast

Advertisements
Track Severe Weather on mobile